sensor_id;sensor_type;location;lat;lon;timestamp;pressure;altitude;pressure_sealevel;temperature;humidity
77159;BME280;66129;45.890;13.714;2024-03-08T00:02:16;101220.25;;;7.93;90.38
77159;BME280;66129;45.890;13.714;2024-03-08T00:04:41;101219.19;;;7.88;89.67
77159;BME280;66129;45.890;13.714;2024-03-08T00:07:07;101214.78;;;7.84;89.88
77159;BME280;66129;45.890;13.714;2024-03-08T00:09:33;101214.91;;;7.87;88.61
77159;BME280;66129;45.890;13.714;2024-03-08T00:11:58;101222.69;;;7.90;88.56
77159;BME280;66129;45.890;13.714;2024-03-08T00:14:24;101210.63;;;7.86;87.90
77159;BME280;66129;45.890;13.714;2024-03-08T00:16:49;101204.50;;;7.82;85.79
77159;BME280;66129;45.890;13.714;2024-03-08T00:19:15;101215.75;;;7.87;86.39
77159;BME280;66129;45.890;13.714;2024-03-08T00:21:40;101221.91;;;7.92;85.94
77159;BME280;66129;45.890;13.714;2024-03-08T00:24:07;101213.16;;;7.86;85.23
77159;BME280;66129;45.890;13.714;2024-03-08T00:26:33;101214.34;;;7.94;85.15
77159;BME280;66129;45.890;13.714;2024-03-08T00:28:58;101216.81;;;7.92;84.10
77159;BME280;66129;45.890;13.714;2024-03-08T00:31:24;101215.06;;;7.91;82.89
77159;BME280;66129;45.890;13.714;2024-03-08T00:33:50;101212.34;;;7.87;84.81
77159;BME280;66129;45.890;13.714;2024-03-08T00:36:16;101205.44;;;7.84;84.99
77159;BME280;66129;45.890;13.714;2024-03-08T00:38:41;101204.63;;;7.85;82.19
77159;BME280;66129;45.890;13.714;2024-03-08T00:41:07;101200.41;;;7.86;82.56
77159;BME280;66129;45.890;13.714;2024-03-08T00:43:32;101214.84;;;7.85;83.74
77159;BME280;66129;45.890;13.714;2024-03-08T00:45:58;101221.78;;;7.89;83.54
77159;BME280;66129;45.890;13.714;2024-03-08T00:48:23;101229.47;;;7.89;83.42
77159;BME280;66129;45.890;13.714;2024-03-08T00:50:49;101211.34;;;7.83;81.69
77159;BME280;66129;45.890;13.714;2024-03-08T00:53:15;101211.31;;;7.82;83.67
77159;BME280;66129;45.890;13.714;2024-03-08T00:55:40;101204.31;;;7.76;83.45
77159;BME280;66129;45.890;13.714;2024-03-08T00:58:05;101207.88;;;7.81;83.48
77159;BME280;66129;45.890;13.714;2024-03-08T01:00:31;101202.50;;;7.74;81.37
77159;BME280;66129;45.890;13.714;2024-03-08T01:02:56;101208.00;;;7.84;82.00
77159;BME280;66129;45.890;13.714;2024-03-08T01:05:23;101208.69;;;7.80;83.19
77159;BME280;66129;45.890;13.714;2024-03-08T01:07:50;101209.41;;;7.76;83.76
77159;BME280;66129;45.890;13.714;2024-03-08T01:10:16;101208.53;;;7.76;83.89
77159;BME280;66129;45.890;13.714;2024-03-08T01:12:41;101209.19;;;7.70;83.91
77159;BME280;66129;45.890;13.714;2024-03-08T01:15:09;101187.75;;;7.67;83.29
77159;BME280;66129;45.890;13.714;2024-03-08T01:17:36;101205.69;;;7.68;82.58
77159;BME280;66129;45.890;13.714;2024-03-08T01:20:02;101204.75;;;7.67;83.72
77159;BME280;66129;45.890;13.714;2024-03-08T01:22:28;101202.88;;;7.61;83.77
77159;BME280;66129;45.890;13.714;2024-03-08T01:24:55;101200.22;;;7.60;83.61
77159;BME280;66129;45.890;13.714;2024-03-08T01:27:21;101206.22;;;7.60;84.17
77159;BME280;66129;45.890;13.714;2024-03-08T01:29:46;101215.50;;;7.58;83.98
77159;BME280;66129;45.890;13.714;2024-03-08T01:32:12;101207.19;;;7.64;83.86
77159;BME280;66129;45.890;13.714;2024-03-08T01:34:37;101195.94;;;7.59;83.13
77159;BME280;66129;45.890;13.714;2024-03-08T01:37:03;101187.94;;;7.50;85.11
77159;BME280;66129;45.890;13.714;2024-03-08T01:39:28;101197.56;;;7.57;85.33
77159;BME280;66129;45.890;13.714;2024-03-08T01:41:54;101184.56;;;7.51;86.12
77159;BME280;66129;45.890;13.714;2024-03-08T01:44:19;101193.03;;;7.50;84.83
77159;BME280;66129;45.890;13.714;2024-03-08T01:46:46;101195.66;;;7.51;85.67
77159;BME280;66129;45.890;13.714;2024-03-08T01:49:13;101189.66;;;7.51;85.36
77159;BME280;66129;45.890;13.714;2024-03-08T01:51:40;101194.09;;;7.55;85.46
77159;BME280;66129;45.890;13.714;2024-03-08T01:54:07;101195.00;;;7.57;84.55
77159;BME280;66129;45.890;13.714;2024-03-08T01:56:35;101190.72;;;7.56;84.03
77159;BME280;66129;45.890;13.714;2024-03-08T01:59:02;101182.34;;;7.58;83.86
77159;BME280;66129;45.890;13.714;2024-03-08T02:01:28;101170.19;;;7.53;83.89
77159;BME280;66129;45.890;13.714;2024-03-08T02:03:54;101182.56;;;7.64;82.77
77159;BME280;66129;45.890;13.714;2024-03-08T02:06:19;101168.56;;;7.55;83.69
77159;BME280;66129;45.890;13.714;2024-03-08T02:08:45;101179.94;;;7.63;83.76
77159;BME280;66129;45.890;13.714;2024-03-08T02:11:11;101164.28;;;7.54;83.51
77159;BME280;66129;45.890;13.714;2024-03-08T02:13:37;101166.97;;;7.57;83.40
77159;BME280;66129;45.890;13.714;2024-03-08T02:16:03;101157.53;;;7.54;84.53
77159;BME280;66129;45.890;13.714;2024-03-08T02:18:30;101163.59;;;7.58;84.01
77159;BME280;66129;45.890;13.714;2024-03-08T02:20:57;101168.66;;;7.56;83.66
77159;BME280;66129;45.890;13.714;2024-03-08T02:23:23;101159.19;;;7.54;83.55
77159;BME280;66129;45.890;13.714;2024-03-08T02:25:53;101173.09;;;7.62;83.43
77159;BME280;66129;45.890;13.714;2024-03-08T02:28:19;101163.72;;;7.61;83.08
77159;BME280;66129;45.890;13.714;2024-03-08T02:30:49;101170.72;;;7.66;82.35
77159;BME280;66129;45.890;13.714;2024-03-08T02:33:15;101155.94;;;7.58;82.99
77159;BME280;66129;45.890;13.714;2024-03-08T02:35:44;101163.94;;;7.67;83.50
77159;BME280;66129;45.890;13.714;2024-03-08T02:38:16;101172.28;;;7.63;83.64
77159;BME280;66129;45.890;13.714;2024-03-08T02:40:44;101161.84;;;7.57;83.97
77159;BME280;66129;45.890;13.714;2024-03-08T02:43:10;101163.31;;;7.50;83.41
77159;BME280;66129;45.890;13.714;2024-03-08T02:45:36;101154.97;;;7.54;83.58
77159;BME280;66129;45.890;13.714;2024-03-08T02:48:02;101149.88;;;7.54;83.57
77159;BME280;66129;45.890;13.714;2024-03-08T02:50:28;101162.66;;;7.56;83.16
77159;BME280;66129;45.890;13.714;2024-03-08T02:52:53;101149.69;;;7.50;84.19
77159;BME280;66129;45.890;13.714;2024-03-08T02:55:19;101156.50;;;7.51;84.85
77159;BME280;66129;45.890;13.714;2024-03-08T02:57:45;101158.97;;;7.48;84.90
77159;BME280;66129;45.890;13.714;2024-03-08T03:00:13;101150.28;;;7.43;85.88
77159;BME280;66129;45.890;13.714;2024-03-08T03:02:39;101139.72;;;7.34;86.09
77159;BME280;66129;45.890;13.714;2024-03-08T03:05:05;101155.19;;;7.38;85.73
77159;BME280;66129;45.890;13.714;2024-03-08T03:07:34;101153.34;;;7.34;86.11
77159;BME280;66129;45.890;13.714;2024-03-08T03:10:00;101161.19;;;7.39;86.71
77159;BME280;66129;45.890;13.714;2024-03-08T03:12:27;101155.84;;;7.33;86.40
77159;BME280;66129;45.890;13.714;2024-03-08T03:14:53;101154.03;;;7.30;86.66
77159;BME280;66129;45.890;13.714;2024-03-08T03:17:18;101153.16;;;7.30;86.49
77159;BME280;66129;45.890;13.714;2024-03-08T03:19:45;101161.19;;;7.39;86.85
77159;BME280;66129;45.890;13.714;2024-03-08T03:22:12;101149.88;;;7.32;86.36
77159;BME280;66129;45.890;13.714;2024-03-08T03:24:38;101160.47;;;7.43;85.93
77159;BME280;66129;45.890;13.714;2024-03-08T03:27:07;101155.38;;;7.43;85.79
77159;BME280;66129;45.890;13.714;2024-03-08T03:29:37;101142.38;;;7.37;85.01
77159;BME280;66129;45.890;13.714;2024-03-08T03:32:03;101140.69;;;7.37;85.05
77159;BME280;66129;45.890;13.714;2024-03-08T03:34:29;101147.63;;;7.40;84.84
77159;BME280;66129;45.890;13.714;2024-03-08T03:36:55;101144.13;;;7.38;85.19
77159;BME280;66129;45.890;13.714;2024-03-08T03:39:21;101152.03;;;7.44;84.50
77159;BME280;66129;45.890;13.714;2024-03-08T03:41:48;101163.16;;;7.46;85.23
77159;BME280;66129;45.890;13.714;2024-03-08T03:44:17;101155.16;;;7.37;85.50
77159;BME280;66129;45.890;13.714;2024-03-08T03:46:42;101143.09;;;7.33;86.58
77159;BME280;66129;45.890;13.714;2024-03-08T03:49:11;101164.41;;;7.35;86.69
77159;BME280;66129;45.890;13.714;2024-03-08T03:51:36;101141.34;;;7.32;86.97
77159;BME280;66129;45.890;13.714;2024-03-08T03:54:02;101152.47;;;7.34;86.49
77159;BME280;66129;45.890;13.714;2024-03-08T03:56:29;101156.66;;;7.32;86.91
77159;BME280;66129;45.890;13.714;2024-03-08T03:58:55;101156.66;;;7.32;86.26
77159;BME280;66129;45.890;13.714;2024-03-08T04:01:21;101159.19;;;7.32;86.28
77159;BME280;66129;45.890;13.714;2024-03-08T04:03:47;101174.72;;;7.38;87.36
77159;BME280;66129;45.890;13.714;2024-03-08T04:06:12;101161.06;;;7.36;86.35
77159;BME280;66129;45.890;13.714;2024-03-08T04:08:38;101157.53;;;7.32;85.73
77159;BME280;66129;45.890;13.714;2024-03-08T04:11:03;101151.53;;;7.32;85.68
77159;BME280;66129;45.890;13.714;2024-03-08T04:13:29;101159.88;;;7.28;86.45
77159;BME280;66129;45.890;13.714;2024-03-08T04:15:54;101161.56;;;7.27;86.77
77159;BME280;66129;45.890;13.714;2024-03-08T04:18:20;101151.31;;;7.26;86.95
77159;BME280;66129;45.890;13.714;2024-03-08T04:20:45;101168.34;;;7.27;87.11
77159;BME280;66129;45.890;13.714;2024-03-08T04:23:11;101164.94;;;7.26;86.60
77159;BME280;66129;45.890;13.714;2024-03-08T04:25:36;101166.34;;;7.20;86.90
77159;BME280;66129;45.890;13.714;2024-03-08T04:28:03;101178.63;;;7.28;87.25
77159;BME280;66129;45.890;13.714;2024-03-08T04:30:28;101175.00;;;7.23;87.62
77159;BME280;66129;45.890;13.714;2024-03-08T04:32:54;101150.06;;;7.16;88.10
77159;BME280;66129;45.890;13.714;2024-03-08T04:35:19;101160.97;;;7.12;87.72
77159;BME280;66129;45.890;13.714;2024-03-08T04:37:45;101175.75;;;7.21;87.81
77159;BME280;66129;45.890;13.714;2024-03-08T04:40:11;101164.97;;;7.06;88.67
77159;BME280;66129;45.890;13.714;2024-03-08T04:42:37;101150.31;;;7.00;88.17
77159;BME280;66129;45.890;13.714;2024-03-08T04:45:04;101172.72;;;7.09;88.79
77159;BME280;66129;45.890;13.714;2024-03-08T04:47:30;101170.19;;;7.09;88.67
77159;BME280;66129;45.890;13.714;2024-03-08T04:49:56;101166.63;;;7.05;87.92
77159;BME280;66129;45.890;13.714;2024-03-08T04:52:22;101172.72;;;7.09;88.17
77159;BME280;66129;45.890;13.714;2024-03-08T04:54:47;101176.13;;;7.09;87.97
77159;BME280;66129;45.890;13.714;2024-03-08T04:57:13;101172.47;;;7.03;88.41
77159;BME280;66129;45.890;13.714;2024-03-08T04:59:39;101174.22;;;7.04;88.04
77159;BME280;66129;45.890;13.714;2024-03-08T05:02:05;101181.06;;;7.05;87.14
77159;BME280;66129;45.890;13.714;2024-03-08T05:04:32;101175.97;;;7.05;87.14
77159;BME280;66129;45.890;13.714;2024-03-08T05:06:57;101171.66;;;7.04;86.75
77159;BME280;66129;45.890;13.714;2024-03-08T05:09:26;101180.22;;;7.04;87.02
77159;BME280;66129;45.890;13.714;2024-03-08T05:11:57;101190.28;;;7.01;86.63
77159;BME280;66129;45.890;13.714;2024-03-08T05:14:25;101175.78;;;7.00;86.44
77159;BME280;66129;45.890;13.714;2024-03-08T05:16:50;101162.78;;;6.94;86.48
77159;BME280;66129;45.890;13.714;2024-03-08T05:19:19;101160.88;;;6.89;87.44
77159;BME280;66129;45.890;13.714;2024-03-08T05:21:46;101176.41;;;6.95;86.12
77159;BME280;66129;45.890;13.714;2024-03-08T05:24:13;101162.50;;;6.87;86.63
77159;BME280;66129;45.890;13.714;2024-03-08T05:26:39;101173.72;;;6.92;86.67
77159;BME280;66129;45.890;13.714;2024-03-08T05:29:05;101171.13;;;6.90;86.44
77159;BME280;66129;45.890;13.714;2024-03-08T05:31:42;101187.59;;;6.98;86.52
77159;BME280;66129;45.890;13.714;2024-03-08T05:34:08;101173.63;;;6.89;86.52
77159;BME280;66129;45.890;13.714;2024-03-08T05:36:35;101183.34;;;6.99;86.97
77159;BME280;66129;45.890;13.714;2024-03-08T05:39:01;101171.13;;;6.90;85.89
77159;BME280;66129;45.890;13.714;2024-03-08T05:41:26;101178.00;;;6.93;86.90
77159;BME280;66129;45.890;13.714;2024-03-08T05:43:51;101172.91;;;6.93;86.65
77159;BME280;66129;45.890;13.714;2024-03-08T05:46:17;101173.63;;;6.89;86.57
77159;BME280;66129;45.890;13.714;2024-03-08T05:48:43;101192.63;;;6.97;87.05
77159;BME280;66129;45.890;13.714;2024-03-08T05:51:09;101179.56;;;6.89;85.88
77159;BME280;66129;45.890;13.714;2024-03-08T05:53:35;101183.06;;;6.91;85.83
77159;BME280;66129;45.890;13.714;2024-03-08T05:56:00;101187.25;;;6.91;86.04
77159;BME280;66129;45.890;13.714;2024-03-08T05:58:27;101177.88;;;6.90;85.56
77159;BME280;66129;45.890;13.714;2024-03-08T06:00:55;101205.31;;;6.95;85.01
77159;BME280;66129;45.890;13.714;2024-03-08T06:03:21;101188.97;;;6.90;85.33
77159;BME280;66129;45.890;13.714;2024-03-08T06:05:50;101195.00;;;6.92;84.69
77159;BME280;66129;45.890;13.714;2024-03-08T06:08:15;101184.03;;;6.95;84.53
77159;BME280;66129;45.890;13.714;2024-03-08T06:10:41;101191.94;;;7.01;84.17
77159;BME280;66129;45.890;13.714;2024-03-08T06:13:07;101186.66;;;6.96;84.69
77159;BME280;66129;45.890;13.714;2024-03-08T06:15:32;101198.66;;;6.99;83.83
77159;BME280;66129;45.890;13.714;2024-03-08T06:18:00;101200.34;;;6.98;84.05
77159;BME280;66129;45.890;13.714;2024-03-08T06:20:25;101200.69;;;7.07;83.89
77159;BME280;66129;45.890;13.714;2024-03-08T06:22:51;101209.03;;;7.03;84.04
77159;BME280;66129;45.890;13.714;2024-03-08T06:25:17;101213.63;;;7.12;83.87
77159;BME280;66129;45.890;13.714;2024-03-08T06:27:43;101210.16;;;7.10;83.43
77159;BME280;66129;45.890;13.714;2024-03-08T06:30:10;101207.34;;;7.04;83.75
77159;BME280;66129;45.890;13.714;2024-03-08T06:32:38;101212.63;;;7.08;83.84
77159;BME280;66129;45.890;13.714;2024-03-08T06:35:05;101210.28;;;7.13;83.17
77159;BME280;66129;45.890;13.714;2024-03-08T06:37:34;101212.16;;;7.17;83.29
77159;BME280;66129;45.890;13.714;2024-03-08T06:40:00;101214.91;;;7.23;83.51
77159;BME280;66129;45.890;13.714;2024-03-08T06:42:27;101218.53;;;7.28;83.33
77159;BME280;66129;45.890;13.714;2024-03-08T06:44:53;101221.97;;;7.28;83.03
77159;BME280;66129;45.890;13.714;2024-03-08T06:47:21;101209.94;;;7.26;83.36
77159;BME280;66129;45.890;13.714;2024-03-08T06:49:48;101224.56;;;7.30;83.37
77159;BME280;66129;45.890;13.714;2024-03-08T06:52:14;101230.59;;;7.32;82.60
77159;BME280;66129;45.890;13.714;2024-03-08T06:54:40;101238.34;;;7.35;83.55
77159;BME280;66129;45.890;13.714;2024-03-08T06:57:06;101229.91;;;7.36;83.55
77159;BME280;66129;45.890;13.714;2024-03-08T06:59:32;101229.94;;;7.37;82.39
77159;BME280;66129;45.890;13.714;2024-03-08T07:01:58;101243.88;;;7.45;83.08
77159;BME280;66129;45.890;13.714;2024-03-08T07:04:25;101229.22;;;7.40;82.38
77159;BME280;66129;45.890;13.714;2024-03-08T07:06:54;101227.22;;;7.33;82.75
77159;BME280;66129;45.890;13.714;2024-03-08T07:09:19;101222.25;;;7.36;83.38
77159;BME280;66129;45.890;13.714;2024-03-08T07:11:45;101218.81;;;7.35;82.53
77159;BME280;66129;45.890;13.714;2024-03-08T07:14:12;101241.56;;;7.51;82.64
77159;BME280;66129;45.890;13.714;2024-03-08T07:16:37;101232.19;;;7.50;81.89
77159;BME280;66129;45.890;13.714;2024-03-08T07:19:05;101232.13;;;7.49;81.76
77159;BME280;66129;45.890;13.714;2024-03-08T07:21:31;101243.59;;;7.60;82.57
77159;BME280;66129;45.890;13.714;2024-03-08T07:23:56;101248.00;;;7.64;81.44
77159;BME280;66129;45.890;13.714;2024-03-08T07:26:25;101248.25;;;7.69;80.94
77159;BME280;66129;45.890;13.714;2024-03-08T07:28:50;101259.50;;;7.74;80.75
77159;BME280;66129;45.890;13.714;2024-03-08T07:31:16;101245.81;;;7.72;79.49
77159;BME280;66129;45.890;13.714;2024-03-08T07:34:00;101243.50;;;7.78;80.20
77159;BME280;66129;45.890;13.714;2024-03-08T07:36:25;101246.97;;;7.80;80.27
77159;BME280;66129;45.890;13.714;2024-03-08T07:38:51;101253.94;;;7.84;79.38
77159;BME280;66129;45.890;13.714;2024-03-08T07:41:16;101240.19;;;7.81;79.02
77159;BME280;66129;45.890;13.714;2024-03-08T07:43:42;101257.72;;;7.94;79.23
77159;BME280;66129;45.890;13.714;2024-03-08T07:46:09;101232.81;;;7.88;78.76
77159;BME280;66129;45.890;13.714;2024-03-08T07:48:35;101230.50;;;7.94;78.46
77159;BME280;66129;45.890;13.714;2024-03-08T07:51:02;101242.34;;;7.92;79.00
77159;BME280;66129;45.890;13.714;2024-03-08T07:53:28;101244.88;;;7.92;78.25
77159;BME280;66129;45.890;13.714;2024-03-08T07:55:54;101238.19;;;7.96;78.65
77159;BME280;66129;45.890;13.714;2024-03-08T07:58:19;101238.19;;;7.96;78.38
77159;BME280;66129;45.890;13.714;2024-03-08T08:00:45;101251.31;;;8.05;78.47
77159;BME280;66129;45.890;13.714;2024-03-08T08:03:10;101246.06;;;8.00;78.99
77159;BME280;66129;45.890;13.714;2024-03-08T08:05:36;101258.41;;;8.12;76.75
77159;BME280;66129;45.890;13.714;2024-03-08T08:08:04;101256.25;;;8.22;77.41
77159;BME280;66129;45.890;13.714;2024-03-08T08:10:32;101252.91;;;8.23;76.40
77159;BME280;66129;45.890;13.714;2024-03-08T08:12:58;101254.31;;;8.39;77.02
77159;BME280;66129;45.890;13.714;2024-03-08T08:15:23;101264.31;;;8.56;75.78
77159;BME280;66129;45.890;13.714;2024-03-08T08:17:49;101261.53;;;8.50;75.76
77159;BME280;66129;45.890;13.714;2024-03-08T08:20:15;101256.28;;;8.69;74.64
77159;BME280;66129;45.890;13.714;2024-03-08T08:22:41;101253.16;;;8.78;74.14
77159;BME280;66129;45.890;13.714;2024-03-08T08:25:08;101263.03;;;8.92;74.35
77159;BME280;66129;45.890;13.714;2024-03-08T08:27:34;101256.19;;;8.91;72.73
77159;BME280;66129;45.890;13.714;2024-03-08T08:30:05;101246.59;;;8.85;74.29
77159;BME280;66129;45.890;13.714;2024-03-08T08:32:36;101261.28;;;8.91;73.78
77159;BME280;66129;45.890;13.714;2024-03-08T08:35:06;101256.28;;;8.94;73.83
77159;BME280;66129;45.890;13.714;2024-03-08T08:37:33;101253.88;;;8.98;73.15
77159;BME280;66129;45.890;13.714;2024-03-08T08:40:01;101255.72;;;9.02;74.82
77159;BME280;66129;45.890;13.714;2024-03-08T08:42:30;101254.78;;;9.00;73.62
77159;BME280;66129;45.890;13.714;2024-03-08T08:44:56;101257.59;;;9.08;74.84
77159;BME280;66129;45.890;13.714;2024-03-08T08:47:23;101260.25;;;9.11;73.21
77159;BME280;66129;45.890;13.714;2024-03-08T08:49:48;101252.47;;;8.82;73.84
77159;BME280;66129;45.890;13.714;2024-03-08T08:52:16;101262.50;;;8.77;75.23
77159;BME280;66129;45.890;13.714;2024-03-08T08:54:42;101253.16;;;8.78;74.11
77159;BME280;66129;45.890;13.714;2024-03-08T08:57:10;101274.09;;;8.91;74.37
77159;BME280;66129;45.890;13.714;2024-03-08T08:59:35;101265.75;;;8.73;74.37
77159;BME280;66129;45.890;13.714;2024-03-08T09:02:06;101271.16;;;8.57;74.32
77159;BME280;66129;45.890;13.714;2024-03-08T09:04:32;101259.69;;;8.46;76.40
77159;BME280;66129;45.890;13.714;2024-03-08T09:06:57;101259.91;;;8.52;75.28
77159;BME280;66129;45.890;13.714;2024-03-08T09:09:23;101261.44;;;8.47;75.28
77159;BME280;66129;45.890;13.714;2024-03-08T09:11:48;101250.59;;;8.53;76.29
77159;BME280;66129;45.890;13.714;2024-03-08T09:14:15;101254.69;;;8.49;76.12
77159;BME280;66129;45.890;13.714;2024-03-08T09:16:40;101266.06;;;8.57;75.33
77159;BME280;66129;45.890;13.714;2024-03-08T09:19:06;101266.63;;;8.49;76.02
77159;BME280;66129;45.890;13.714;2024-03-08T09:21:32;101265.09;;;8.54;77.11
77159;BME280;66129;45.890;13.714;2024-03-08T09:24:00;101263.03;;;8.44;76.90
77159;BME280;66129;45.890;13.714;2024-03-08T09:26:25;101267.47;;;8.49;77.51
77159;BME280;66129;45.890;13.714;2024-03-08T09:28:51;101267.34;;;8.46;77.95
77159;BME280;66129;45.890;13.714;2024-03-08T09:31:16;101268.38;;;8.51;77.63
77159;BME280;66129;45.890;13.714;2024-03-08T09:33:42;101283.16;;;8.60;77.37
77159;BME280;66129;45.890;13.714;2024-03-08T09:36:08;101275.47;;;8.58;78.30
77159;BME280;66129;45.890;13.714;2024-03-08T09:38:33;101260.16;;;8.60;78.40
77159;BME280;66129;45.890;13.714;2024-03-08T09:41:02;101271.31;;;8.62;76.12
77159;BME280;66129;45.890;13.714;2024-03-08T09:43:29;101271.50;;;8.66;76.19
77159;BME280;66129;45.890;13.714;2024-03-08T09:45:56;101270.75;;;8.70;74.77
77159;BME280;66129;45.890;13.714;2024-03-08T09:48:22;101275.25;;;8.76;75.78
77159;BME280;66129;45.890;13.714;2024-03-08T09:50:48;101270.28;;;8.80;75.92
77159;BME280;66129;45.890;13.714;2024-03-08T09:53:14;101284.06;;;8.83;73.76
77159;BME280;66129;45.890;13.714;2024-03-08T09:55:40;101279.94;;;8.88;75.12
77159;BME280;66129;45.890;13.714;2024-03-08T09:58:11;101267.00;;;8.84;74.28
77159;BME280;66129;45.890;13.714;2024-03-08T10:00:47;101267.34;;;8.93;74.13
77159;BME280;66129;45.890;13.714;2024-03-08T10:03:13;101268.50;;;9.02;75.40
77159;BME280;66129;45.890;13.714;2024-03-08T10:05:41;101277.94;;;9.05;74.34
77159;BME280;66129;45.890;13.714;2024-03-08T10:08:07;101279.75;;;9.07;73.18
77159;BME280;66129;45.890;13.714;2024-03-08T10:10:36;101268.50;;;9.02;75.38
77159;BME280;66129;45.890;13.714;2024-03-08T10:13:06;101265.38;;;9.11;75.70
77159;BME280;66129;45.890;13.714;2024-03-08T10:15:31;101280.22;;;9.21;75.76
77159;BME280;66129;45.890;13.714;2024-03-08T10:17:58;101268.84;;;9.13;77.19
77159;BME280;66129;45.890;13.714;2024-03-08T10:20:24;101284.44;;;9.20;76.16
77159;BME280;66129;45.890;13.714;2024-03-08T10:22:52;101274.28;;;8.97;72.17
77159;BME280;66129;45.890;13.714;2024-03-08T10:25:19;101284.06;;;9.08;75.49
77159;BME280;66129;45.890;13.714;2024-03-08T10:27:44;101289.38;;;9.14;75.86
77159;BME280;66129;45.890;13.714;2024-03-08T10:30:14;101283.69;;;9.23;77.09
77159;BME280;66129;45.890;13.714;2024-03-08T10:32:41;101279.44;;;9.23;77.44
77159;BME280;66129;45.890;13.714;2024-03-08T10:35:09;101277.66;;;9.21;76.59
77159;BME280;66129;45.890;13.714;2024-03-08T10:40:17;101278.47;;;9.20;79.98
77159;BME280;66129;45.890;13.714;2024-03-08T10:42:52;101283.50;;;9.17;80.61
77159;BME280;66129;45.890;13.714;2024-03-08T10:45:35;101282.47;;;9.12;82.58
77159;BME280;66129;45.890;13.714;2024-03-08T10:50:38;101285.22;;;8.93;82.20
77159;BME280;66129;45.890;13.714;2024-03-08T10:53:06;101282.50;;;8.88;84.76
77159;BME280;66129;45.890;13.714;2024-03-08T10:55:33;101274.66;;;8.82;84.18
77159;BME280;66129;45.890;13.714;2024-03-08T10:57:59;101265.75;;;8.73;85.98
77159;BME280;66129;45.890;13.714;2024-03-08T11:00:25;101281.91;;;8.72;88.25
77159;BME280;66129;45.890;13.714;2024-03-08T11:02:55;101281.88;;;8.71;87.91
77159;BME280;66129;45.890;13.714;2024-03-08T11:05:47;101288.28;;;8.83;88.16
77159;BME280;66129;45.890;13.714;2024-03-08T11:08:20;101284.09;;;8.85;90.55
77159;BME280;66129;45.890;13.714;2024-03-08T11:10:55;101282.25;;;8.81;89.69
77159;BME280;66129;45.890;13.714;2024-03-08T11:16:09;101273.44;;;8.73;90.01
77159;BME280;66129;45.890;13.714;2024-03-08T11:18:35;101265.72;;;8.72;90.35
77159;BME280;66129;45.890;13.714;2024-03-08T11:21:06;101264.91;;;8.73;92.30
77159;BME280;66129;45.890;13.714;2024-03-08T11:23:37;101271.31;;;8.85;92.21
77159;BME280;66129;45.890;13.714;2024-03-08T11:26:17;101260.06;;;8.80;92.16
77159;BME280;66129;45.890;13.714;2024-03-08T11:28:43;101260.13;;;8.82;93.60
77159;BME280;66129;45.890;13.714;2024-03-08T11:33:35;101260.59;;;8.95;93.67
77159;BME280;66129;45.890;13.714;2024-03-08T11:38:40;101238.91;;;8.61;92.90
77159;BME280;66129;45.890;13.714;2024-03-08T11:41:06;101226.56;;;8.48;93.15
77159;BME280;66129;45.890;13.714;2024-03-08T11:43:32;101233.22;;;8.44;94.47
77159;BME280;66129;45.890;13.714;2024-03-08T11:46:14;101249.34;;;8.43;92.26
77159;BME280;66129;45.890;13.714;2024-03-08T11:48:40;101239.47;;;8.29;91.99
77159;BME280;66129;45.890;13.714;2024-03-08T11:51:11;101234.31;;;8.27;92.63
77159;BME280;66129;45.890;13.714;2024-03-08T11:53:37;101240.16;;;8.25;92.43
77159;BME280;66129;45.890;13.714;2024-03-08T11:56:10;101231.66;;;8.24;97.78
77159;BME280;66129;45.890;13.714;2024-03-08T11:58:37;101224.28;;;8.10;93.77
77159;BME280;66129;45.890;13.714;2024-03-08T12:01:10;101230.19;;;8.09;100.00
77159;BME280;66129;45.890;13.714;2024-03-08T12:03:40;101230.78;;;8.02;96.88
77159;BME280;66129;45.890;13.714;2024-03-08T12:06:10;101222.06;;;7.97;100.00
77159;BME280;66129;45.890;13.714;2024-03-08T12:08:36;101211.34;;;7.83;97.84
77159;BME280;66129;45.890;13.714;2024-03-08T12:11:04;101226.16;;;7.92;97.28
77159;BME280;66129;45.890;13.714;2024-03-08T12:13:31;101213.63;;;7.76;96.46
77159;BME280;66129;45.890;13.714;2024-03-08T12:16:03;101232.78;;;7.87;99.26
77159;BME280;66129;45.890;13.714;2024-03-08T12:18:37;101230.09;;;7.84;99.40
77159;BME280;66129;45.890;13.714;2024-03-08T12:21:10;101226.75;;;7.85;99.09
77159;BME280;66129;45.890;13.714;2024-03-08T12:23:37;101184.19;;;7.62;99.89
77159;BME280;66129;45.890;13.714;2024-03-08T12:26:14;101221.16;;;7.95;99.88
77159;BME280;66129;45.890;13.714;2024-03-08T12:28:42;101203.47;;;7.99;100.00
77159;BME280;66129;45.890;13.714;2024-03-08T12:31:11;101182.13;;;7.97;100.00
77159;BME280;66129;45.890;13.714;2024-03-08T12:33:50;101198.78;;;8.11;100.00
77159;BME280;66129;45.890;13.714;2024-03-08T12:36:16;101203.59;;;8.26;99.59
77159;BME280;66129;45.890;13.714;2024-03-08T12:38:49;101191.75;;;8.28;97.11
77159;BME280;66129;45.890;13.714;2024-03-08T12:41:20;101198.91;;;8.36;100.00
77159;BME280;66129;45.890;13.714;2024-03-08T12:43:46;101189.59;;;8.38;95.43
77159;BME280;66129;45.890;13.714;2024-03-08T12:46:18;101187.09;;;8.40;95.13
77159;BME280;66129;45.890;13.714;2024-03-08T12:48:47;101185.25;;;8.36;99.20
77159;BME280;66129;45.890;13.714;2024-03-08T12:51:14;101190.34;;;8.36;100.00
77159;BME280;66129;45.890;13.714;2024-03-08T12:53:44;101177.66;;;8.37;98.70
77159;BME280;66129;45.890;13.714;2024-03-08T12:56:11;101165.50;;;8.32;98.01
77159;BME280;66129;45.890;13.714;2024-03-08T12:58:38;101151.81;;;8.30;98.09
77159;BME280;66129;45.890;13.714;2024-03-08T13:01:04;101179.75;;;8.49;97.58
77159;BME280;66129;45.890;13.714;2024-03-08T13:03:30;101139.22;;;8.34;93.12